PWSweather.com
Personal Weather Stations
Station Observations

NjegusiYU

Lat: 42.43746, Lon: 18.822765

Elevation: 856

Station Type: Davis Vantage Vue

http://pljusak.com/njegusi/index.html

Latest ConditionsUpdated 9:50:00 PM GMT+01:01 Wednesday, Jun 20, 2018
Currently Today's Max Today's Min Today's Average
Temperature 59.3°F15.2°C 79.7°F26.5°C 56.1°F13.4°C 69.2°F20.7°C
Dew Point 56.7°F13.7°C 62.8°F17.1°C 53.7°F12.1°C 58.1°F14.5°C
Winds Calm Calm 3.0 mph -4.8 kmh - - 0.7 mph 1.1 kmh
Wind Gusts -- 10.0 mph16.1 kmh - -
Humidity 91% 93% 44% 70%
Pressure 27.27 in923.5 mb 27.30 in924.5 mb 27.24 in922.5 mb -
Hour Temp Dew Point Humidity Winds Wind Gusts Pressure Precip Precip Rate Daily Precip Total
09:50 PM 59.3°F15.2°C 56.7°F13.7°C 91% Calm Calm -- 27.27 in923.5 mb 0.00 in0.0 mm 0.00 in0.0 mm 0.00 in0.0 mm
09:40 PM 60.1°F15.6°C 57.2°F14.0°C 90% Calm Calm -- 27.28 in923.8 mb 0.00 in0.0 mm 0.00 in0.0 mm 0.00 in0.0 mm
09:30 PM 60.9°F16.1°C 57.6°F14.2°C 89% Calm Calm -- 27.27 in923.5 mb 0.00 in0.0 mm 0.00 in0.0 mm 0.00 in0.0 mm
09:20 PM 60.7°F15.9°C 58.1°F14.5°C 91% Calm Calm -- 27.28 in923.8 mb 0.00 in0.0 mm 0.00 in0.0 mm 0.00 in0.0 mm
09:10 PM 61.0°F16.1°C 57.7°F14.3°C 89% Calm Calm -- 27.27 in923.5 mb 0.00 in0.0 mm 0.00 in0.0 mm 0.00 in0.0 mm
09:00 PM 61.7°F16.5°C 57.8°F14.3°C 87% Calm Calm -- 27.27 in923.5 mb 0.00 in0.0 mm 0.00 in0.0 mm 0.00 in0.0 mm
08:50 PM 62.4°F16.9°C 58.2°F14.6°C 86% Calm Calm -- 27.27 in923.5 mb 0.00 in0.0 mm 0.00 in0.0 mm 0.00 in0.0 mm
08:40 PM 63.1°F17.3°C 58.5°F14.7°C 85% Calm Calm -- 27.27 in923.5 mb 0.00 in0.0 mm 0.00 in0.0 mm 0.00 in0.0 mm
08:30 PM 63.6°F17.6°C 59.0°F15.0°C 85% Calm Calm -- 27.27 in923.5 mb 0.00 in0.0 mm 0.00 in0.0 mm 0.00 in0.0 mm
08:20 PM 64.2°F17.9°C 59.6°F15.3°C 85% Calm Calm -- 27.27 in923.5 mb 0.00 in0.0 mm 0.00 in0.0 mm 0.00 in0.0 mm
08:10 PM 64.6°F18.1°C 58.6°F14.8°C 81% Calm Calm -- 27.26 in923.1 mb 0.00 in0.0 mm 0.00 in0.0 mm 0.00 in0.0 mm
08:00 PM 65.3°F18.5°C 59.0°F15.0°C 80% Calm Calm -- 27.26 in923.1 mb 0.00 in0.0 mm 0.00 in0.0 mm 0.00 in0.0 mm
07:50 PM 66.0°F18.9°C 59.6°F15.3°C 80% Calm Calm -- 27.25 in922.8 mb 0.00 in0.0 mm 0.00 in0.0 mm 0.00 in0.0 mm
07:40 PM 67.1°F19.5°C 60.4°F15.8°C 79% Calm Calm -- 27.25 in922.8 mb 0.00 in0.0 mm 0.00 in0.0 mm 0.00 in0.0 mm
07:30 PM 67.9°F19.9°C 59.7°F15.4°C 75% Calm Calm -- 27.25 in922.8 mb 0.00 in0.0 mm 0.00 in0.0 mm 0.00 in0.0 mm
07:20 PM 68.5°F20.3°C 59.1°F15.1°C 72% Calm Calm -- 27.25 in922.8 mb 0.00 in0.0 mm 0.00 in0.0 mm 0.00 in0.0 mm
07:10 PM 68.8°F20.4°C 59.4°F15.2°C 72% Calm Calm -- 27.25 in922.8 mb 0.00 in0.0 mm 0.00 in0.0 mm 0.00 in0.0 mm
07:00 PM 69.3°F20.7°C 59.5°F15.3°C 71% Calm Calm 1.0 mph1.6 kmh 27.25 in922.8 mb 0.00 in0.0 mm 0.00 in0.0 mm 0.00 in0.0 mm
06:50 PM 69.4°F20.8°C 58.4°F14.7°C 68% Calm Calm 1.0 mph1.6 kmh 27.25 in922.8 mb 0.00 in0.0 mm 0.00 in0.0 mm 0.00 in0.0 mm
06:40 PM 69.6°F20.9°C 59.0°F15.0°C 69% Calm Calm 1.0 mph1.6 kmh 27.25 in922.8 mb 0.00 in0.0 mm 0.00 in0.0 mm 0.00 in0.0 mm
06:30 PM 69.8°F21.0°C 58.3°F14.6°C 67% Calm Calm 1.0 mph1.6 kmh 27.25 in922.8 mb 0.00 in0.0 mm 0.00 in0.0 mm 0.00 in0.0 mm
06:20 PM 70.0°F21.1°C 58.5°F14.7°C 67% Calm Calm 1.0 mph1.6 kmh 27.25 in922.8 mb 0.00 in0.0 mm 0.00 in0.0 mm 0.00 in0.0 mm
06:10 PM 69.9°F21.1°C 58.4°F14.7°C 67% Calm Calm 2.0 mph3.2 kmh 27.25 in922.8 mb 0.00 in0.0 mm 0.00 in0.0 mm 0.00 in0.0 mm
06:00 PM 70.1°F21.2°C 58.6°F14.8°C 67% Calm Calm 2.0 mph3.2 kmh 27.25 in922.8 mb 0.00 in0.0 mm 0.00 in0.0 mm 0.00 in0.0 mm
05:50 PM 70.5°F21.4°C 58.2°F14.6°C 65% Calm Calm 3.0 mph4.8 kmh 27.25 in922.8 mb 0.00 in0.0 mm 0.00 in0.0 mm 0.00 in0.0 mm
05:40 PM 71.0°F21.7°C 58.2°F14.6°C 64% 1.0 mph SE1.6 kmh SE 4.0 mph6.4 kmh 27.25 in922.8 mb 0.00 in0.0 mm 0.00 in0.0 mm 0.00 in0.0 mm
05:30 PM 71.3°F21.8°C 58.0°F14.4°C 63% 1.0 mph SE1.6 kmh SE 4.0 mph6.4 kmh 27.24 in922.5 mb 0.00 in0.0 mm 0.00 in0.0 mm 0.00 in0.0 mm
05:20 PM 72.0°F22.2°C 58.7°F14.8°C 63% 1.0 mph SE1.6 kmh SE 5.0 mph8.0 kmh 27.24 in922.5 mb 0.00 in0.0 mm 0.00 in0.0 mm 0.00 in0.0 mm
05:10 PM 72.7°F22.6°C 58.9°F14.9°C 62% 1.0 mph SE1.6 kmh SE 3.0 mph4.8 kmh 27.24 in922.5 mb 0.00 in0.0 mm 0.00 in0.0 mm 0.00 in0.0 mm
05:00 PM 73.7°F23.2°C 58.5°F14.7°C 59% 1.0 mph NW1.6 kmh NW 3.0 mph4.8 kmh 27.24 in922.5 mb 0.00 in0.0 mm 0.00 in0.0 mm 0.00 in0.0 mm
04:50 PM 75.1°F23.9°C 60.2°F15.7°C 60% 1.0 mph SE1.6 kmh SE 3.0 mph4.8 kmh 27.24 in922.5 mb 0.00 in0.0 mm 0.00 in0.0 mm 0.00 in0.0 mm
04:40 PM 75.5°F24.2°C 59.7°F15.4°C 58% 2.0 mph ESE3.2 kmh ESE 5.0 mph8.0 kmh 27.24 in922.5 mb 0.00 in0.0 mm 0.00 in0.0 mm 0.00 in0.0 mm
04:30 PM 75.3°F24.1°C 60.0°F15.6°C 59% 2.0 mph SE3.2 kmh SE 8.0 mph12.9 kmh 27.24 in922.5 mb 0.00 in0.0 mm 0.00 in0.0 mm 0.00 in0.0 mm
04:20 PM 75.8°F24.3°C 60.0°F15.6°C 58% 2.0 mph SE3.2 kmh SE 6.0 mph9.7 kmh 27.25 in922.8 mb 0.00 in0.0 mm 0.00 in0.0 mm 0.00 in0.0 mm
04:10 PM 76.0°F24.4°C 60.6°F15.9°C 59% 2.0 mph SE3.2 kmh SE 6.0 mph9.7 kmh 27.25 in922.8 mb 0.00 in0.0 mm 0.00 in0.0 mm 0.00 in0.0 mm
04:00 PM 75.8°F24.3°C 60.9°F16.1°C 60% 2.0 mph ESE3.2 kmh ESE 5.0 mph8.0 kmh 27.25 in922.8 mb 0.00 in0.0 mm 0.00 in0.0 mm 0.00 in0.0 mm
03:50 PM 75.5°F24.2°C 59.7°F15.4°C 58% 2.0 mph SE3.2 kmh SE 6.0 mph9.7 kmh 27.25 in922.8 mb 0.00 in0.0 mm 0.00 in0.0 mm 0.00 in0.0 mm
03:40 PM 76.0°F24.4°C 60.6°F15.9°C 59% 2.0 mph SE3.2 kmh SE 6.0 mph9.7 kmh 27.25 in922.8 mb 0.00 in0.0 mm 0.00 in0.0 mm 0.00 in0.0 mm
03:30 PM 75.7°F24.3°C 60.3°F15.7°C 59% 3.0 mph SE4.8 kmh SE 7.0 mph11.3 kmh 27.25 in922.8 mb 0.00 in0.0 mm 0.00 in0.0 mm 0.00 in0.0 mm
03:20 PM 76.1°F24.5°C 60.2°F15.7°C 58% 2.0 mph SE3.2 kmh SE 8.0 mph12.9 kmh 27.25 in922.8 mb 0.00 in0.0 mm 0.00 in0.0 mm 0.00 in0.0 mm
03:10 PM 76.6°F24.8°C 61.2°F16.2°C 59% 2.0 mph SE3.2 kmh SE 6.0 mph9.7 kmh 27.25 in922.8 mb 0.00 in0.0 mm 0.00 in0.0 mm 0.00 in0.0 mm
03:00 PM 77.1°F25.1°C 61.2°F16.2°C 58% 2.0 mph SE3.2 kmh SE 6.0 mph9.7 kmh 27.25 in922.8 mb 0.00 in0.0 mm 0.00 in0.0 mm 0.00 in0.0 mm
02:50 PM 77.6°F25.3°C 61.1°F16.2°C 57% 2.0 mph ESE3.2 kmh ESE 7.0 mph11.3 kmh 27.25 in922.8 mb 0.00 in0.0 mm 0.00 in0.0 mm 0.00 in0.0 mm
02:40 PM 77.9°F25.5°C 61.9°F16.6°C 58% 2.0 mph SE3.2 kmh SE 6.0 mph9.7 kmh 27.25 in922.8 mb 0.00 in0.0 mm 0.00 in0.0 mm 0.00 in0.0 mm
02:30 PM 78.4°F25.8°C 61.4°F16.3°C 56% 2.0 mph ESE3.2 kmh ESE 7.0 mph11.3 kmh 27.25 in922.8 mb 0.00 in0.0 mm 0.00 in0.0 mm 0.00 in0.0 mm
02:20 PM 77.7°F25.4°C 61.2°F16.2°C 57% 2.0 mph SE3.2 kmh SE 10.0 mph16.1 kmh 27.26 in923.1 mb 0.00 in0.0 mm 0.00 in0.0 mm 0.00 in0.0 mm
02:10 PM 77.8°F25.4°C 60.3°F15.7°C 55% 3.0 mph SE4.8 kmh SE 10.0 mph16.1 kmh 27.26 in923.1 mb 0.00 in0.0 mm 0.00 in0.0 mm 0.00 in0.0 mm
02:00 PM 79.1°F26.2°C 62.5°F16.9°C 57% 1.0 mph SE1.6 kmh SE 4.0 mph6.4 kmh 27.26 in923.1 mb 0.00 in0.0 mm 0.00 in0.0 mm 0.00 in0.0 mm
01:50 PM 77.9°F25.5°C 59.9°F15.5°C 54% 2.0 mph SE3.2 kmh SE 9.0 mph14.5 kmh 27.26 in923.1 mb 0.00 in0.0 mm 0.00 in0.0 mm 0.00 in0.0 mm
01:40 PM 78.4°F25.8°C 60.4°F15.8°C 54% 3.0 mph SE4.8 kmh SE 10.0 mph16.1 kmh 27.26 in923.1 mb 0.00 in0.0 mm 0.00 in0.0 mm 0.00 in0.0 mm
01:30 PM 79.1°F26.2°C 60.5°F15.8°C 53% 1.0 mph SE1.6 kmh SE 4.0 mph6.4 kmh 27.26 in923.1 mb 0.00 in0.0 mm 0.00 in0.0 mm 0.00 in0.0 mm
01:20 PM 78.1°F25.6°C 61.1°F16.2°C 56% 2.0 mph ESE3.2 kmh ESE 6.0 mph9.7 kmh 27.27 in923.5 mb 0.00 in0.0 mm 0.00 in0.0 mm 0.00 in0.0 mm
01:10 PM 78.6°F25.9°C 62.6°F17.0°C 58% 2.0 mph SE3.2 kmh SE 5.0 mph8.0 kmh 27.27 in923.5 mb 0.00 in0.0 mm 0.00 in0.0 mm 0.00 in0.0 mm
01:00 PM 78.8°F26.0°C 62.8°F17.1°C 58% 2.0 mph SE3.2 kmh SE 5.0 mph8.0 kmh 27.27 in923.5 mb 0.00 in0.0 mm 0.00 in0.0 mm 0.00 in0.0 mm
12:50 PM 79.2°F26.2°C 56.6°F13.7°C 46% 2.0 mph SE3.2 kmh SE 6.0 mph9.7 kmh 27.28 in923.8 mb 0.00 in0.0 mm 0.00 in0.0 mm 0.00 in0.0 mm
12:40 PM 79.7°F26.5°C 58.2°F14.6°C 48% 1.0 mph SE1.6 kmh SE 6.0 mph9.7 kmh 27.28 in923.8 mb 0.00 in0.0 mm 0.00 in0.0 mm 0.00 in0.0 mm
12:30 PM 79.4°F26.3°C 59.7°F15.4°C 51% 1.0 mph ESE1.6 kmh ESE 4.0 mph6.4 kmh 27.28 in923.8 mb 0.00 in0.0 mm 0.00 in0.0 mm 0.00 in0.0 mm
12:20 PM 79.2°F26.2°C 58.9°F14.9°C 50% 2.0 mph ESE3.2 kmh ESE 6.0 mph9.7 kmh 27.28 in923.8 mb 0.00 in0.0 mm 0.00 in0.0 mm 0.00 in0.0 mm
12:10 PM 79.4°F26.3°C 60.2°F15.7°C 52% Calm Calm 2.0 mph3.2 kmh 27.28 in923.8 mb 0.00 in0.0 mm 0.00 in0.0 mm 0.00 in0.0 mm
12:00 PM 78.9°F26.1°C 59.2°F15.1°C 51% 2.0 mph SE3.2 kmh SE 5.0 mph8.0 kmh 27.29 in924.1 mb 0.00 in0.0 mm 0.00 in0.0 mm 0.00 in0.0 mm
11:50 AM 78.6°F25.9°C 60.0°F15.6°C 53% 2.0 mph SE3.2 kmh SE 7.0 mph11.3 kmh 27.29 in924.1 mb 0.00 in0.0 mm 0.00 in0.0 mm 0.00 in0.0 mm
11:40 AM 78.6°F25.9°C 62.1°F16.7°C 57% 2.0 mph SE3.2 kmh SE 5.0 mph8.0 kmh 27.28 in923.8 mb 0.00 in0.0 mm 0.00 in0.0 mm 0.00 in0.0 mm
11:30 AM 76.6°F24.8°C 58.7°F14.8°C 54% 2.0 mph SE3.2 kmh SE 7.0 mph11.3 kmh 27.29 in924.1 mb 0.00 in0.0 mm 0.00 in0.0 mm 0.00 in0.0 mm
11:20 AM 76.2°F24.6°C 59.3°F15.2°C 56% 1.0 mph SE1.6 kmh SE 4.0 mph6.4 kmh 27.29 in924.1 mb 0.00 in0.0 mm 0.00 in0.0 mm 0.00 in0.0 mm
11:10 AM 77.3°F25.2°C 57.7°F14.3°C 51% 1.0 mph SE1.6 kmh SE 5.0 mph8.0 kmh 27.29 in924.1 mb 0.00 in0.0 mm 0.00 in0.0 mm 0.00 in0.0 mm
11:00 AM 78.3°F25.7°C 54.6°F12.6°C 44% 1.0 mph SE1.6 kmh SE 3.0 mph4.8 kmh 27.29 in924.1 mb 0.00 in0.0 mm 0.00 in0.0 mm 0.00 in0.0 mm
10:50 AM 77.9°F25.5°C 59.4°F15.2°C 53% 1.0 mph ESE1.6 kmh ESE 6.0 mph9.7 kmh 27.29 in924.1 mb 0.00 in0.0 mm 0.00 in0.0 mm 0.00 in0.0 mm
10:40 AM 78.1°F25.6°C 60.1°F15.6°C 54% 1.0 mph SE1.6 kmh SE 5.0 mph8.0 kmh 27.29 in924.1 mb 0.00 in0.0 mm 0.00 in0.0 mm 0.00 in0.0 mm
10:30 AM 77.7°F25.4°C 57.0°F13.9°C 49% 2.0 mph SE3.2 kmh SE 6.0 mph9.7 kmh 27.30 in924.5 mb 0.00 in0.0 mm 0.00 in0.0 mm 0.00 in0.0 mm
10:20 AM 78.0°F25.6°C 60.0°F15.6°C 54% 2.0 mph SE3.2 kmh SE 5.0 mph8.0 kmh 27.30 in924.5 mb 0.00 in0.0 mm 0.00 in0.0 mm 0.00 in0.0 mm
10:10 AM 77.7°F25.4°C 59.7°F15.4°C 54% 2.0 mph SE3.2 kmh SE 8.0 mph12.9 kmh 27.29 in924.1 mb 0.00 in0.0 mm 0.00 in0.0 mm 0.00 in0.0 mm
10:00 AM 77.6°F25.3°C 61.1°F16.2°C 57% 1.0 mph SE1.6 kmh SE 4.0 mph6.4 kmh 27.29 in924.1 mb 0.00 in0.0 mm 0.00 in0.0 mm 0.00 in0.0 mm
09:50 AM 77.1°F25.1°C 61.6°F16.4°C 59% 1.0 mph NNE1.6 kmh NNE 8.0 mph12.9 kmh 27.29 in924.1 mb 0.00 in0.0 mm 0.00 in0.0 mm 0.00 in0.0 mm
09:40 AM 77.5°F25.3°C 60.5°F15.8°C 56% Calm Calm 2.0 mph3.2 kmh 27.29 in924.1 mb 0.00 in0.0 mm 0.00 in0.0 mm 0.00 in0.0 mm
09:30 AM 76.5°F24.7°C 57.5°F14.2°C 52% 1.0 mph NNE1.6 kmh NNE 4.0 mph6.4 kmh 27.29 in924.1 mb 0.00 in0.0 mm 0.00 in0.0 mm 0.00 in0.0 mm
09:20 AM 76.7°F24.8°C 58.3°F14.6°C 53% 1.0 mph SE1.6 kmh SE 5.0 mph8.0 kmh 27.29 in924.1 mb 0.00 in0.0 mm 0.00 in0.0 mm 0.00 in0.0 mm
09:10 AM 76.4°F24.7°C 61.9°F16.6°C 61% 1.0 mph ESE1.6 kmh ESE 6.0 mph9.7 kmh 27.29 in924.1 mb 0.00 in0.0 mm 0.00 in0.0 mm 0.00 in0.0 mm
09:00 AM 75.9°F24.4°C 57.5°F14.2°C 53% 1.0 mph 1.6 kmh 3.0 mph4.8 kmh 27.29 in924.1 mb 0.00 in0.0 mm 0.00 in0.0 mm 0.00 in0.0 mm
08:50 AM 76.1°F24.5°C 61.2°F16.2°C 60% 1.0 mph 1.6 kmh 5.0 mph8.0 kmh 27.29 in924.1 mb 0.00 in0.0 mm 0.00 in0.0 mm 0.00 in0.0 mm
08:40 AM 76.1°F24.5°C 60.7°F15.9°C 59% 1.0 mph ESE1.6 kmh ESE 4.0 mph6.4 kmh 27.29 in924.1 mb 0.00 in0.0 mm 0.00 in0.0 mm 0.00 in0.0 mm
08:30 AM 75.4°F24.1°C 60.1°F15.6°C 59% 1.0 mph SE1.6 kmh SE 4.0 mph6.4 kmh 27.29 in924.1 mb 0.00 in0.0 mm 0.00 in0.0 mm 0.00 in0.0 mm
08:20 AM 75.7°F24.3°C 59.9°F15.5°C 58% Calm Calm 4.0 mph6.4 kmh 27.29 in924.1 mb 0.00 in0.0 mm 0.00 in0.0 mm 0.00 in0.0 mm
08:10 AM 74.9°F23.8°C 59.6°F15.3°C 59% Calm Calm 4.0 mph6.4 kmh 27.29 in924.1 mb 0.00 in0.0 mm 0.00 in0.0 mm 0.00 in0.0 mm
08:00 AM 74.6°F23.7°C 59.8°F15.4°C 60% 1.0 mph ESE1.6 kmh ESE 4.0 mph6.4 kmh 27.29 in924.1 mb 0.00 in0.0 mm 0.00 in0.0 mm 0.00 in0.0 mm
07:50 AM 74.4°F23.6°C 60.5°F15.8°C 62% 1.0 mph NE1.6 kmh NE 3.0 mph4.8 kmh 27.29 in924.1 mb 0.00 in0.0 mm 0.00 in0.0 mm 0.00 in0.0 mm
07:40 AM 74.7°F23.7°C 58.9°F14.9°C 58% 1.0 mph ESE1.6 kmh ESE 3.0 mph4.8 kmh 27.29 in924.1 mb 0.00 in0.0 mm 0.00 in0.0 mm 0.00 in0.0 mm
07:30 AM 75.1°F23.9°C 60.7°F15.9°C 61% Calm Calm 2.0 mph3.2 kmh 27.29 in924.1 mb 0.00 in0.0 mm 0.00 in0.0 mm 0.00 in0.0 mm
07:20 AM 74.2°F23.4°C 60.8°F16.0°C 63% Calm Calm 2.0 mph3.2 kmh 27.29 in924.1 mb 0.00 in0.0 mm 0.00 in0.0 mm 0.00 in0.0 mm
07:10 AM 73.3°F22.9°C 59.5°F15.3°C 62% 1.0 mph SE1.6 kmh SE 3.0 mph4.8 kmh 27.29 in924.1 mb 0.00 in0.0 mm 0.00 in0.0 mm 0.00 in0.0 mm
07:00 AM 72.9°F22.7°C 60.0°F15.6°C 64% Calm Calm 2.0 mph3.2 kmh 27.29 in924.1 mb 0.00 in0.0 mm 0.00 in0.0 mm 0.00 in0.0 mm
06:50 AM 72.0°F22.2°C 58.3°F14.6°C 62% Calm Calm 3.0 mph4.8 kmh 27.29 in924.1 mb 0.00 in0.0 mm 0.00 in0.0 mm 0.00 in0.0 mm
06:40 AM 70.7°F21.5°C 57.5°F14.2°C 63% Calm Calm -- 27.29 in924.1 mb 0.00 in0.0 mm 0.00 in0.0 mm 0.00 in0.0 mm
06:30 AM 70.3°F21.3°C 58.4°F14.7°C 66% Calm Calm -- 27.29 in924.1 mb 0.00 in0.0 mm 0.00 in0.0 mm 0.00 in0.0 mm
06:20 AM 68.2°F20.1°C 57.6°F14.2°C 69% Calm Calm -- 27.28 in923.8 mb 0.00 in0.0 mm 0.00 in0.0 mm 0.00 in0.0 mm
06:10 AM 66.7°F19.3°C 60.0°F15.6°C 79% Calm Calm -- 27.28 in923.8 mb 0.00 in0.0 mm 0.00 in0.0 mm 0.00 in0.0 mm
06:00 AM 65.1°F18.4°C 56.6°F13.7°C 74% Calm Calm -- 27.28 in923.8 mb 0.00 in0.0 mm 0.00 in0.0 mm 0.00 in0.0 mm
05:50 AM 64.7°F18.2°C 59.7°F15.4°C 84% Calm Calm -- 27.27 in923.5 mb 0.00 in0.0 mm 0.00 in0.0 mm 0.00 in0.0 mm
05:40 AM 63.3°F17.4°C 56.3°F13.5°C 78% Calm Calm -- 27.27 in923.5 mb 0.00 in0.0 mm 0.00 in0.0 mm 0.00 in0.0 mm
05:30 AM 61.4°F16.3°C 56.2°F13.4°C 83% Calm Calm -- 27.27 in923.5 mb 0.00 in0.0 mm 0.00 in0.0 mm 0.00 in0.0 mm
05:20 AM 58.8°F14.9°C 55.9°F13.3°C 90% Calm Calm -- 27.27 in923.5 mb 0.00 in0.0 mm 0.00 in0.0 mm 0.00 in0.0 mm
05:10 AM 58.9°F14.9°C 55.4°F13.0°C 88% Calm Calm -- 27.26 in923.1 mb 0.00 in0.0 mm 0.00 in0.0 mm 0.00 in0.0 mm
05:00 AM 59.7°F15.4°C 54.9°F12.7°C 84% Calm Calm -- 27.26 in923.1 mb 0.00 in0.0 mm 0.00 in0.0 mm 0.00 in0.0 mm
04:50 AM 60.9°F16.1°C 55.7°F13.2°C 83% Calm Calm -- 27.26 in923.1 mb 0.00 in0.0 mm 0.00 in0.0 mm 0.00 in0.0 mm
04:40 AM 59.8°F15.4°C 55.0°F12.8°C 84% Calm Calm -- 27.26 in923.1 mb 0.00 in0.0 mm 0.00 in0.0 mm 0.00 in0.0 mm
04:30 AM 57.7°F14.3°C 54.2°F12.3°C 88% Calm Calm -- 27.26 in923.1 mb 0.00 in0.0 mm 0.00 in0.0 mm 0.00 in0.0 mm
04:20 AM 56.9°F13.8°C 53.7°F12.1°C 89% Calm Calm -- 27.26 in923.1 mb 0.00 in0.0 mm 0.00 in0.0 mm 0.00 in0.0 mm
04:10 AM 57.2°F14.0°C 54.0°F12.2°C 89% Calm Calm -- 27.25 in922.8 mb 0.00 in0.0 mm 0.00 in0.0 mm 0.00 in0.0 mm
04:00 AM 57.4°F14.1°C 53.9°F12.2°C 88% Calm Calm 1.0 mph1.6 kmh 27.25 in922.8 mb 0.00 in0.0 mm 0.00 in0.0 mm 0.00 in0.0 mm
03:50 AM 58.5°F14.7°C 54.0°F12.2°C 85% Calm Calm -- 27.25 in922.8 mb 0.00 in0.0 mm 0.00 in0.0 mm 0.00 in0.0 mm
03:40 AM 60.3°F15.7°C 54.4°F12.4°C 81% Calm Calm -- 27.25 in922.8 mb 0.00 in0.0 mm 0.00 in0.0 mm 0.00 in0.0 mm
03:30 AM 61.2°F16.2°C 54.6°F12.6°C 79% 1.0 mph NW1.6 kmh NW 3.0 mph4.8 kmh 27.25 in922.8 mb 0.00 in0.0 mm 0.00 in0.0 mm 0.00 in0.0 mm
03:20 AM 58.4°F14.7°C 54.5°F12.5°C 87% Calm Calm 1.0 mph1.6 kmh 27.25 in922.8 mb 0.00 in0.0 mm 0.00 in0.0 mm 0.00 in0.0 mm
03:10 AM 57.3°F14.1°C 53.8°F12.1°C 88% Calm Calm 1.0 mph1.6 kmh 27.25 in922.8 mb 0.00 in0.0 mm 0.00 in0.0 mm 0.00 in0.0 mm
03:00 AM 56.8°F13.8°C 53.9°F12.2°C 90% Calm Calm 1.0 mph1.6 kmh 27.24 in922.5 mb 0.00 in0.0 mm 0.00 in0.0 mm 0.00 in0.0 mm
02:50 AM 56.6°F13.7°C 54.0°F12.2°C 91% Calm Calm -- 27.24 in922.5 mb 0.00 in0.0 mm 0.00 in0.0 mm 0.00 in0.0 mm
02:40 AM 57.0°F13.9°C 54.1°F12.3°C 90% Calm Calm -- 27.24 in922.5 mb 0.00 in0.0 mm 0.00 in0.0 mm 0.00 in0.0 mm
02:30 AM 57.4°F14.1°C 54.2°F12.3°C 89% Calm Calm -- 27.24 in922.5 mb 0.00 in0.0 mm 0.00 in0.0 mm 0.00 in0.0 mm
02:20 AM 57.5°F14.2°C 54.3°F12.4°C 89% Calm Calm -- 27.24 in922.5 mb 0.00 in0.0 mm 0.00 in0.0 mm 0.00 in0.0 mm
02:10 AM 57.8°F14.3°C 54.6°F12.6°C 89% Calm Calm 1.0 mph1.6 kmh 27.24 in922.5 mb 0.00 in0.0 mm 0.00 in0.0 mm 0.00 in0.0 mm
02:00 AM 56.5°F13.6°C 54.2°F12.3°C 92% Calm Calm 1.0 mph1.6 kmh 27.24 in922.5 mb 0.00 in0.0 mm 0.00 in0.0 mm 0.00 in0.0 mm
01:50 AM 56.5°F13.6°C 54.5°F12.5°C 93% Calm Calm -- 27.24 in922.5 mb 0.00 in0.0 mm 0.00 in0.0 mm 0.00 in0.0 mm
01:40 AM 56.1°F13.4°C 54.1°F12.3°C 93% Calm Calm -- 27.24 in922.5 mb 0.00 in0.0 mm 0.00 in0.0 mm 0.00 in0.0 mm
01:30 AM 56.3°F13.5°C 54.0°F12.2°C 92% Calm Calm -- 27.24 in922.5 mb 0.00 in0.0 mm 0.00 in0.0 mm 0.00 in0.0 mm
01:20 AM 56.3°F13.5°C 54.3°F12.4°C 93% Calm Calm -- 27.24 in922.5 mb 0.00 in0.0 mm 0.00 in0.0 mm 0.00 in0.0 mm
01:10 AM 56.1°F13.4°C 53.8°F12.1°C 92% Calm Calm -- 27.24 in922.5 mb 0.00 in0.0 mm 0.00 in0.0 mm 0.00 in0.0 mm
01:00 AM 56.3°F13.5°C 53.7°F12.1°C 91% Calm Calm -- 27.24 in922.5 mb 0.00 in0.0 mm 0.00 in0.0 mm 0.00 in0.0 mm
12:50 AM 56.8°F13.8°C 53.9°F12.2°C 90% Calm Calm -- 27.24 in922.5 mb 0.00 in0.0 mm 0.00 in0.0 mm 0.00 in0.0 mm
12:40 AM 57.3°F14.1°C 54.1°F12.3°C 89% Calm Calm -- 27.24 in922.5 mb 0.00 in0.0 mm 0.00 in0.0 mm 0.00 in0.0 mm
12:30 AM 58.1°F14.5°C 54.2°F12.3°C 87% Calm Calm -- 27.24 in922.5 mb 0.00 in0.0 mm 0.00 in0.0 mm 0.00 in0.0 mm
12:20 AM 59.1°F15.1°C 54.9°F12.7°C 86% Calm Calm -- 27.25 in922.8 mb 0.00 in0.0 mm 0.00 in0.0 mm 0.00 in0.0 mm
12:10 AM 60.1°F15.6°C 54.9°F12.7°C 83% Calm Calm -- 27.24 in922.5 mb 0.00 in0.0 mm 0.00 in0.0 mm 0.00 in0.0 mm
12:00 AM 60.8°F16.0°C 55.6°F13.1°C 83% Calm Calm 1.0 mph1.6 kmh 27.24 in922.5 mb 0.00 in0.0 mm 0.00 in0.0 mm 0.00 in0.0 mm